aviador You're here:

KMSS Decoded Metar

MASSENA in NY, USA
Report Time2017-05-30 10:53:00
UTC Time2017-05-30 11:13:50
Flight Rules vfr VFR
WindCalm
Visibility9999 m
Phenomena:N/A
Clouds:Few 120 Hf
Expected CloudBase > 400 ft AGL from Temp-Dew spread
CeilingNone
Temp14°C (ISA -1)
Dew Point13°C (94% RH)
QNH1015 hPa
Density Alt282 ft
Elevation217 ft
Report Wrong Elevation
Raw Report
METAR KMSS 301053Z AUTO 00000KT 10SM FEW120 14/13 A2998 RMK AO2 SLP152
T01390128 $=

Extra information for KMSS:More info

Metar Taf Metar & Taf Last 4 Metars F.Rules Stats Wind Profile Meteogram Temp Stats Airport Information Weather charts Add Link Nearby VenuesMetar ALERT Operation Metar Decoded Social comments

AIRNAV info for KMSS